Time;durP1;ratioP1;P1;durP2;ratioP2;P2;SDS_P1;SDS_P2;PMS_P1;PMS_P2;Temp;Humidity;BMP_temperature;BMP_pressure;BME280_temperature;BME280_humidity;BME280_pressure;Samples;Min_cycle;Max_cycle;Signal;HPM_P1;HPM_P2
2022/05/01 06:11:19;;;;;;;;;15.75;15.75;;;;;12.42;87.18;101898.66;6167754;22;45752;-87
2022/05/01 06:13:44;;;;;;;;;18.00;13.00;;;;;12.59;86.89;101909.25;6171798;23;46154;-86
2022/05/01 06:16:10;;;;;;;;;14.00;12.50;;;;;12.76;86.57;101918.09;6145603;23;45366;-86
2022/05/01 06:18:35;;;;;;;;;16.75;13.25;;;;;12.91;86.38;101912.75;6145058;23;49721;-86
2022/05/01 06:21:01;;;;;;;;;15.00;10.50;;;;;13.13;86.63;101921.84;6145148;23;45452;-87
2022/05/01 06:23:26;;;;;;;;;17.25;13.75;;;;;13.38;86.42;101919.59;6144907;22;54571;-87
2022/05/01 06:25:51;;;;;;;;;18.75;15.25;;;;;13.71;86.60;101921.31;6172420;22;45553;-87
2022/05/01 06:28:17;;;;;;;;;19.00;15.75;;;;;14.00;85.67;101926.25;6171910;23;45341;-87
2022/05/01 06:30:48;;;;;;;;;16.25;15.00;;;;;14.21;85.48;101930.78;6145557;23;45370;-87
2022/05/01 06:33:15;;;;;;;;;15.00;13.25;;;;;14.35;85.03;101935.03;6144291;23;46340;-87
2022/05/01 06:35:42;;;;;;;;;15.00;11.75;;;;;14.41;84.80;101927.38;6145250;23;45626;-87
2022/05/01 06:38:08;;;;;;;;;21.00;13.00;;;;;14.44;84.32;101941.56;6172335;23;45345;-87
2022/05/01 06:40:34;;;;;;;;;14.50;14.50;;;;;14.50;84.49;101947.16;6144949;23;45409;-87
2022/05/01 06:43:00;;;;;;;;;13.50;12.00;;;;;14.55;84.83;101944.75;6144532;23;48190;-87
2022/05/01 06:45:25;;;;;;;;;16.50;14.00;;;;;14.57;84.28;101944.00;6145389;22;45288;-87
2022/05/01 06:47:50;;;;;;;;;17.25;15.00;;;;;14.61;83.93;101964.44;6171891;23;45522;-87
2022/05/01 06:50:16;;;;;;;;;17.00;14.25;;;;;14.63;83.90;101951.31;6145491;23;45385;-87
2022/05/01 06:52:42;;;;;;;;;17.50;11.75;;;;;14.67;83.81;101952.34;6171542;23;46124;-87
2022/05/01 06:55:09;;;;;;;;;19.00;16.50;;;;;14.75;84.01;101962.47;6172075;23;45313;-87
2022/05/01 06:57:34;;;;;;;;;24.75;15.25;;;;;14.82;83.87;101952.16;6144875;23;45349;-88
2022/05/01 07:00:00;;;;;;;;;18.50;15.00;;;;;14.88;83.87;101949.84;6172555;22;45270;-87
2022/05/01 07:02:25;;;;;;;;;13.75;12.25;;;;;14.97;83.41;101949.41;6144316;23;47840;-88
2022/05/01 07:04:50;;;;;;;;;20.50;17.50;;;;;15.05;83.77;101942.69;6171964;23;48329;-88
2022/05/01 07:07:16;;;;;;;;;17.00;14.75;;;;;15.15;83.66;101951.06;6171910;23;45403;-88
2022/05/01 07:09:41;;;;;;;;;17.50;16.00;;;;;15.25;83.48;101955.94;6146650;23;45433;-89
2022/05/01 07:12:10;;;;;;;;;17.00;14.50;;;;;15.36;83.77;101950.25;6173413;23;45541;-87
2022/05/01 07:14:36;;;;;;;;;14.25;13.25;;;;;15.46;83.61;101952.44;6174451;23;45802;-87
2022/05/01 07:17:01;;;;;;;;;21.00;18.25;;;;;15.56;83.27;101951.13;6174430;23;45614;-88
2022/05/01 07:19:27;;;;;;;;;18.75;18.25;;;;;15.69;82.86;101951.66;6148460;23;45360;-90
2022/05/01 07:21:52;;;;;;;;;17.75;15.50;;;;;15.79;82.55;101956.53;6147612;23;47055;-92
2022/05/01 07:24:17;;;;;;;;;19.75;16.00;;;;;15.88;82.35;101956.00;6176243;23;45283;-90
2022/05/01 07:26:43;;;;;;;;;21.25;19.00;;;;;15.96;82.27;101958.97;6151160;23;45345;-90
2022/05/01 07:29:08;;;;;;;;;19.00;16.50;;;;;16.00;82.02;101962.66;6150738;22;45565;-89
2022/05/01 07:31:33;;;;;;;;;21.75;18.00;;;;;16.02;81.71;101956.59;6146846;23;47994;-90
2022/05/01 07:33:59;;;;;;;;;27.50;25.00;;;;;16.08;81.55;101959.53;6176638;22;45274;-87
2022/05/01 07:36:24;;;;;;;;;17.75;14.75;;;;;16.14;81.64;101968.56;6175533;23;45567;-90
2022/05/01 07:38:50;;;;;;;;;19.75;19.50;;;;;16.19;81.82;101965.28;6176257;23;45416;-91
2022/05/01 07:41:19;;;;;;;;;21.00;18.00;;;;;16.24;81.21;101973.41;6173425;23;45577;-88
2022/05/01 07:43:45;;;;;;;;;20.25;19.75;;;;;16.27;81.21;101965.59;6147689;23;45365;-89
2022/05/01 07:46:11;;;;;;;;;21.25;17.00;;;;;16.29;80.88;101963.91;6146964;23;45392;-88
2022/05/01 07:48:36;;;;;;;;;16.25;15.25;;;;;16.35;80.65;101963.25;6147100;23;45361;-89
2022/05/01 07:51:02;;;;;;;;;21.75;17.25;;;;;16.35;80.08;101965.00;6176412;23;46268;-88
2022/05/01 07:53:28;;;;;;;;;19.00;17.00;;;;;16.36;80.27;101962.44;6170245;23;45356;-87
2022/05/01 07:55:53;;;;;;;;;21.00;16.75;;;;;16.40;80.23;101958.16;6147045;23;45347;-87
2022/05/01 07:58:21;;;;;;;;;17.25;14.00;;;;;16.44;79.81;101960.06;6178168;22;45375;-87
2022/05/01 08:00:47;;;;;;;;;17.75;11.00;;;;;16.45;79.33;101960.97;6172937;23;45799;-88
2022/05/01 08:05:58;;;;;;;;;15.50;15.25;;;;;16.39;79.11;101951.06;6174433;23;45425;-87
2022/05/01 08:08:23;;;;;;;;;15.75;13.50;;;;;16.43;78.91;101955.63;6176990;23;45571;-86
2022/05/01 08:10:48;;;;;;;;;16.00;15.75;;;;;16.47;79.20;101953.97;6208670;22;48242;-88
2022/05/01 08:13:13;;;;;;;;;19.00;15.50;;;;;16.53;79.09;101956.91;6301135;22;45229;-87
2022/05/01 08:15:39;;;;;;;;;16.00;13.75;;;;;16.60;78.69;101964.25;6298163;22;49590;-87
2022/05/01 08:23:32;;;;;;;;;16.00;11.50;;;;;16.70;78.12;101954.91;6299926;22;45651;-87
2022/05/01 08:26:03;;;;;;;;;17.50;16.00;;;;;16.81;78.25;101957.06;6296339;22;45357;-87
2022/05/01 08:28:36;;;;;;;;;15.00;13.00;;;;;16.95;77.61;101960.28;6298082;22;45680;-86
2022/05/01 08:31:03;;;;;;;;;17.50;16.00;;;;;17.03;77.18;101958.84;6299695;22;45449;-87
2022/05/01 08:33:29;;;;;;;;;17.75;14.25;;;;;17.13;77.55;101960.06;6300444;22;45415;-88
2022/05/01 08:35:55;;;;;;;;;17.25;14.25;;;;;17.22;76.77;101959.53;6300271;22;45444;-88
2022/05/01 08:38:20;;;;;;;;;17.33;14.33;;;;;17.13;76.66;101953.84;6300764;22;45401;-88
2022/05/01 08:40:48;;;;;;;;;12.50;12.00;;;;;17.16;76.77;101948.72;6297645;22;48452;-88
2022/05/01 08:43:20;;;;;;;;;16.25;13.75;;;;;17.24;76.37;101954.31;6300211;22;45414;-88
2022/05/01 08:45:52;;;;;;;;;18.00;15.50;;;;;17.44;75.50;101947.06;6300036;22;45403;-88
2022/05/01 08:48:44;;;;;;;;;14.75;12.50;;;;;17.59;76.17;101948.47;6298084;22;45558;-88
2022/05/01 08:51:10;;;;;;;;;16.25;15.00;;;;;17.71;75.75;101951.53;6298791;22;46909;-88
2022/05/01 08:53:37;;;;;;;;;19.50;14.00;;;;;17.84;75.84;101954.63;6299856;22;45884;-87
2022/05/01 08:56:05;;;;;;;;;15.75;12.25;;;;;17.98;75.41;101956.00;6300785;22;45342;-87
2022/05/01 08:58:31;;;;;;;;;16.75;12.25;;;;;18.12;75.03;101959.97;6299727;22;45533;-88
2022/05/01 09:00:58;;;;;;;;;18.75;13.50;;;;;18.23;74.80;101961.25;6300183;22;45946;-88
2022/05/01 09:03:24;;;;;;;;;12.75;12.00;;;;;18.37;74.08;101960.81;6300788;22;45341;-87
2022/05/01 09:05:50;;;;;;;;;13.00;11.00;;;;;18.50;74.56;101959.47;6298012;22;45380;-88
2022/05/01 09:08:16;;;;;;;;;17.25;12.75;;;;;18.60;73.91;101969.53;6298255;22;45506;-86
2022/05/01 09:10:43;;;;;;;;;15.50;15.00;;;;;18.70;73.87;101956.53;6250559;22;45470;-86
2022/05/01 09:13:09;;;;;;;;;15.75;15.50;;;;;18.78;73.55;101962.06;6171252;23;45333;-86
2022/05/01 09:15:43;;;;;;;;;15.33;14.67;;;;;18.82;73.13;101958.66;6144282;23;47686;-87
2022/05/01 09:18:11;;;;;;;;;14.33;13.00;;;;;18.84;73.35;101960.50;6172596;23;45670;-86
2022/05/01 09:20:57;;;;;;;;;15.75;15.75;;;;;18.91;72.99;101955.38;6172122;23;45301;-86
2022/05/01 09:23:36;;;;;;;;;13.33;13.33;;;;;19.03;73.70;101958.41;6145154;23;45328;-86
2022/05/01 09:26:02;;;;;;;;;16.00;15.50;;;;;19.15;73.54;101955.19;6172084;23;45403;-90
2022/05/01 09:28:28;;;;;;;;;20.75;15.75;;;;;19.31;73.36;101951.25;6144726;23;45338;-87
2022/05/01 09:30:53;;;;;;;;;14.00;14.00;;;;;19.52;73.62;101943.81;6144397;23;53083;-88
2022/05/01 09:33:21;;;;;;;;;18.50;16.75;;;;;19.79;73.07;101945.38;6172829;23;45401;-87
2022/05/01 09:35:48;;;;;;;;;17.75;15.00;;;;;20.05;73.30;101945.16;6144402;23;45322;-88
2022/05/01 09:38:26;;;;;;;;;15.00;12.25;;;;;20.27;72.74;101948.41;6171590;23;45315;-88
2022/05/01 09:40:58;;;;;;;;;14.00;11.67;;;;;20.57;72.55;101935.75;6171140;23;45742;-88
2022/05/01 09:43:43;;;;;;;;;11.25;10.25;;;;;20.87;71.78;101945.28;6171583;23;45292;-89
2022/05/01 09:46:29;;;;;;;;;15.75;15.75;;;;;21.07;70.77;101944.84;6171987;23;45649;-88
2022/05/01 09:49:03;;;;;;;;;19.25;11.75;;;;;21.32;70.78;101948.00;6144156;23;45305;-86
2022/05/01 09:51:31;;;;;;;;;14.67;14.33;;;;;21.68;70.62;101944.19;6170582;23;45265;-86
2022/05/01 09:53:58;;;;;;;;;12.67;12.67;;;;;22.08;69.30;101942.25;6144431;23;46990;-88
2022/05/01 09:56:23;;;;;;;;;16.75;14.00;;;;;22.44;70.13;101937.47;6167865;23;45439;-87
2022/05/01 09:59:00;;;;;;;;;12.67;12.33;;;;;22.98;69.74;101936.41;6142601;23;45366;-87
2022/05/01 10:01:25;;;;;;;;;10.67;9.33;;;;;23.32;68.58;101941.25;6144768;23;48289;-90
2022/05/01 10:03:52;;;;;;;;;13.33;10.67;;;;;23.64;68.17;101942.50;6171291;23;45829;-88
2022/05/01 10:06:19;;;;;;;;;16.00;15.33;;;;;23.93;66.87;101946.34;6144581;23;45289;-89
2022/05/01 10:08:45;;;;;;;;;10.00;9.67;;;;;24.10;66.54;101938.41;6171419;23;45221;-87
2022/05/01 10:11:14;;;;;;;;;10.33;9.67;;;;;24.27;65.50;101948.41;6231003;22;48294;-88
2022/05/01 10:13:41;;;;;;;;;19.33;12.33;;;;;24.44;64.98;101947.63;6299124;22;45622;-88
2022/05/01 10:16:09;;;;;;;;;14.33;12.00;;;;;24.87;65.30;101938.88;6298592;22;45296;-87
2022/05/01 10:18:36;;;;;;;;;14.33;13.00;;;;;25.12;64.39;101940.81;6299423;22;45573;-88
2022/05/01 10:21:02;;;;;;;;;11.00;10.67;;;;;25.22;63.50;101939.03;6299188;22;45957;-88
2022/05/01 10:23:29;;;;;;;;;9.67;8.67;;;;;25.28;63.14;101939.03;6297231;22;45996;-88
2022/05/01 10:26:28;;;;;;;;;8.67;8.67;;;;;25.61;61.56;101939.13;6296363;22;45365;-88
2022/05/01 10:29:02;;;;;;;;;11.67;10.00;;;;;25.91;62.42;101938.25;6290421;22;45768;-90
2022/05/01 10:34:32;;;;;;;;;9.67;9.67;;;;;26.40;61.31;101918.47;6299521;22;45390;-89
2022/05/01 10:37:19;;;;;;;;;9.33;7.67;;;;;26.85;60.60;101917.41;6298864;22;45321;-89
2022/05/01 10:39:46;;;;;;;;;13.00;10.67;;;;;27.24;58.71;101908.25;6297011;22;45317;-90
2022/05/01 10:42:11;;;;;;;;;10.67;9.00;;;;;27.49;59.06;101915.28;6299488;22;45439;-89
2022/05/01 10:44:38;;;;;;;;;11.00;9.67;;;;;28.05;59.32;101914.84;6298850;22;45675;-89
2022/05/01 10:47:05;;;;;;;;;8.33;8.33;;;;;28.72;58.63;101910.53;6299274;22;45360;-90
2022/05/01 10:49:36;;;;;;;;;10.67;7.33;;;;;29.35;57.46;101904.28;6302041;22;45257;-90
2022/05/01 10:52:15;;;;;;;;;11.67;10.00;;;;;29.73;55.44;101901.00;6301517;22;46226;-91
2022/05/01 10:54:45;;;;;;;;;8.33;8.33;;;;;29.84;55.59;101904.38;6298723;22;45677;-88
2022/05/01 10:57:13;;;;;;;;;12.67;9.67;;;;;30.15;55.73;101905.66;6302352;22;45465;-88
2022/05/01 10:59:44;;;;;;;;;11.00;9.33;;;;;30.53;54.99;101897.72;6300908;22;45375;-88
2022/05/01 11:02:31;;;;;;;;;9.33;9.33;;;;;30.97;54.63;101899.50;6300763;22;46094;-88
2022/05/01 11:04:58;;;;;;;;;8.67;8.00;;;;;31.28;54.61;101896.97;6297947;22;45362;-87
2022/05/01 11:07:25;;;;;;;;;8.00;8.00;;;;;31.51;53.20;101887.38;6297419;22;45285;-87
2022/05/01 11:09:51;;;;;;;;;12.00;9.00;;;;;31.51;52.17;101890.09;6294171;22;45238;-90
2022/05/01 11:12:22;;;;;;;;;9.33;9.33;;;;;31.36;52.13;101889.56;6145411;22;46621;-89
2022/05/01 11:14:57;;;;;;;;;9.67;9.67;;;;;31.13;51.10;101893.72;6146482;22;45534;-88
2022/05/01 11:17:36;;;;;;;;;16.00;15.75;;;;;31.00;50.56;101882.28;6172563;23;45437;-86
2022/05/01 11:20:08;;;;;;;;;10.00;7.33;;;;;31.18;50.32;101885.47;6172822;23;45281;-86
2022/05/01 11:22:34;;;;;;;;;6.33;6.33;;;;;31.63;50.90;101875.34;6145395;23;48348;-88
2022/05/01 11:24:59;;;;;;;;;9.33;8.33;;;;;32.32;50.11;101868.06;6144865;23;45287;-88
2022/05/01 11:27:24;;;;;;;;;6.00;6.00;;;;;33.12;50.00;101871.09;6145849;23;45491;-88
2022/05/01 11:30:13;;;;;;;;;8.33;7.00;;;;;34.14;49.74;101878.56;6173642;23;45208;-88
2022/05/01 11:32:43;;;;;;;;;12.67;7.33;;;;;35.20;48.95;101873.56;6145983;23;47223;-88
2022/05/01 11:35:08;;;;;;;;;7.33;6.67;;;;;36.39;47.42;101872.13;6146320;23;45257;-89
2022/05/01 11:37:47;;;;;;;;;5.33;5.33;;;;;37.58;46.18;101869.09;6173910;23;45373;-89
2022/05/01 11:40:24;;;;;;;;;4.00;4.00;;;;;38.84;45.06;101873.34;6173102;23;45313;-89
2022/05/01 11:42:50;;;;;;;;;6.00;6.00;;;;;40.04;43.90;101856.16;6172596;23;45623;-89
2022/05/01 11:45:18;;;;;;;;;2.33;2.33;;;;;41.53;44.13;101854.66;6173680;23;45478;-89
2022/05/01 11:47:48;;;;;;;;;5.67;5.67;;;;;42.97;40.93;101866.38;6173112;23;45353;-88
2022/05/01 11:50:19;;;;;;;;;5.67;4.00;;;;;44.39;40.73;101861.75;6168735;23;45699;-90
2022/05/01 11:52:49;;;;;;;;;4.00;4.00;;;;;45.75;38.98;101862.31;6145036;23;47160;-89
2022/05/01 11:55:18;;;;;;;;;7.33;6.33;;;;;47.25;37.95;101853.34;6144934;23;45801;-90
2022/05/01 12:03:27;;;;;;;;;6.00;6.00;;;;;50.36;34.79;101846.09;6173186;23;45340;-89
2022/05/01 12:05:52;;;;;;;;;4.33;4.33;;;;;51.14;33.73;101856.16;6173077;23;45578;-89
2022/05/01 12:08:22;;;;;;;;;5.00;5.00;;;;;51.85;32.37;101855.50;6146628;23;45394;-90
2022/05/01 12:10:48;;;;;;;;;6.00;6.00;;;;;52.46;31.07;101847.47;6185540;22;45396;-88
2022/05/01 12:13:22;;;;;;;;;3.67;3.67;;;;;52.98;30.80;101844.13;6173162;22;46134;-91
2022/05/01 12:15:49;;;;;;;;;6.00;6.00;;;;;53.47;29.94;101852.25;6173099;23;45269;-91
2022/05/01 12:18:15;;;;;;;;;5.00;4.67;;;;;53.79;28.65;101840.84;6277508;22;45449;-90
2022/05/01 12:20:40;;;;;;;;;4.00;3.00;;;;;54.05;29.00;101840.31;6172514;22;45262;-90
2022/05/01 12:23:15;;;;;;;;;5.33;4.00;;;;;54.26;27.85;101848.97;6279692;22;48322;-91
2022/05/01 12:25:41;;;;;;;;;4.00;4.00;;;;;53.90;27.06;101840.31;6174778;23;45666;-89
2022/05/01 12:28:10;;;;;;;;;4.00;4.00;;;;;53.57;28.04;101840.75;6280141;22;45237;-91
2022/05/01 12:30:36;;;;;;;;;3.00;3.00;;;;;53.27;26.72;101827.59;6278932;22;45300;-90
2022/05/01 12:33:03;;;;;;;;;4.67;4.67;;;;;53.06;26.57;101827.25;6173879;22;45823;-91
2022/05/01 12:35:48;;;;;;;;;4.67;4.67;;;;;53.03;26.24;101830.44;6172935;23;45568;-89
2022/05/01 12:38:15;;;;;;;;;6.00;5.00;;;;;53.12;26.12;101831.19;6277074;22;45297;-91
2022/05/01 12:46:21;;;;;;;;;3.33;3.33;;;;;52.96;26.43;101824.69;6172298;23;45377;-90
2022/05/01 12:48:46;;;;;;;;;4.67;4.00;;;;;52.88;25.69;101824.78;6277823;22;45623;-91
2022/05/01 12:51:13;;;;;;;;;4.00;4.00;;;;;52.63;26.06;101817.44;6172033;23;45292;-90
2022/05/01 12:53:38;;;;;;;;;3.67;3.67;;;;;52.47;25.62;101817.56;6279119;22;46568;-93
2022/05/01 12:56:22;;;;;;;;;5.00;5.00;;;;;52.55;25.91;101817.53;6278743;22;45314;-92
2022/05/01 12:58:49;;;;;;;;;6.00;6.00;;;;;52.85;26.14;101812.00;6173777;23;45262;-93
2022/05/01 13:01:27;;;;;;;;;4.00;4.00;;;;;53.20;25.15;101812.56;6176498;22;45310;-95
2022/05/01 13:03:56;;;;;;;;;4.00;4.00;;;;;53.38;25.73;101812.19;6279431;22;47467;-94
2022/05/01 13:06:23;;;;;;;;;5.67;5.00;;;;;53.57;24.84;101815.50;6174480;22;45243;-94
2022/05/01 13:09:07;;;;;;;;;5.00;4.00;;;;;53.82;24.71;101801.13;6279371;22;45279;-94
2022/05/01 13:11:33;;;;;;;;;5.67;4.67;;;;;53.96;24.67;101799.41;6174560;23;45424;-91
2022/05/01 13:14:09;;;;;;;;;5.67;4.00;;;;;54.04;24.47;101801.22;6173642;23;45430;-90
2022/05/01 13:16:34;;;;;;;;;7.33;7.00;;;;;54.67;24.98;101808.13;6147263;23;45294;-91
2022/05/01 13:19:12;;;;;;;;;3.33;3.33;;;;;55.67;24.71;101798.91;6147694;22;45492;-91
2022/05/01 13:21:39;;;;;;;;;6.67;4.33;;;;;56.53;24.66;101791.94;6148009;22;45440;-93
2022/05/01 13:24:13;;;;;;;;;4.00;4.00;;;;;57.04;24.24;101793.22;6175393;23;45336;-92
2022/05/01 13:26:38;;;;;;;;;4.67;4.67;;;;;57.36;23.58;101806.63;6174021;23;45335;-91
2022/05/01 13:29:07;;;;;;;;;3.67;3.67;;;;;55.84;23.31;101800.25;6148682;23;45483;-90
2022/05/01 13:31:36;;;;;;;;;7.00;5.67;;;;;55.61;23.58;101797.78;6148458;23;45257;-93
2022/05/01 13:34:02;;;;;;;;;5.33;5.33;;;;;56.28;23.49;101799.97;6179607;23;46453;-92
2022/05/01 13:36:28;;;;;;;;;4.00;4.00;;;;;56.96;22.82;101770.94;6148370;23;45345;-93
2022/05/01 13:38:54;;;;;;;;;5.00;5.00;;;;;57.48;23.10;101791.81;6174028;23;45329;-93
2022/05/01 13:46:47;;;;;;;;;4.67;4.67;;;;;58.82;22.44;101787.50;6175809;23;45453;-93
2022/05/01 13:49:13;;;;;;;;;4.00;4.00;;;;;59.22;22.63;101779.69;6172941;22;45309;-93
2022/05/01 13:51:38;;;;;;;;;5.00;3.00;;;;;59.53;22.66;101769.28;6175058;23;45740;-91
2022/05/01 13:54:03;;;;;;;;;5.67;5.33;;;;;60.02;22.17;101774.03;6145891;23;46956;-93
2022/05/01 13:56:32;;;;;;;;;4.00;4.00;;;;;60.44;21.22;101757.28;6174225;23;45614;-90
2022/05/01 13:58:58;;;;;;;;;6.00;4.33;;;;;60.63;22.05;101757.13;6146153;23;45335;-90
2022/05/01 14:01:24;;;;;;;;;4.00;4.00;;;;;60.89;21.34;101766.22;6146468;23;45183;-95
2022/05/01 14:03:50;;;;;;;;;6.00;6.00;;;;;58.60;21.12;101759.66;6172703;23;45486;-93
2022/05/01 14:06:16;;;;;;;;;5.00;5.00;;;;;54.69;21.61;101749.78;6174304;23;45458;-94
2022/05/01 14:08:41;;;;;;;;;6.00;6.00;;;;;51.29;22.43;101747.28;6172954;23;45353;-90
2022/05/01 14:11:07;;;;;;;;;3.67;3.67;;;;;50.40;23.41;101744.25;6167601;23;45398;-92
2022/05/01 14:13:32;;;;;;;;;5.00;4.67;;;;;50.94;23.91;101731.66;6172285;23;46401;-93
2022/05/01 14:15:58;;;;;;;;;0.00;0.00;;;;;51.83;23.52;101740.09;6171615;23;45468;-92
2022/05/01 14:18:24;;;;;;;;;4.00;4.00;;;;;51.80;23.94;101722.81;6144993;23;45358;-93
2022/05/01 14:20:56;;;;;;;;;4.33;4.00;;;;;50.63;23.87;101733.25;6172055;23;45353;-92
2022/05/01 14:23:23;;;;;;;;;7.67;6.00;;;;;48.24;24.23;101738.09;6145931;23;47343;-93
2022/05/01 14:25:49;;;;;;;;;4.00;4.00;;;;;47.15;24.79;101722.81;6172471;23;45322;-91
2022/05/01 14:28:15;;;;;;;;;6.00;6.00;;;;;47.08;25.68;101730.00;6172070;23;45327;-89
2022/05/01 14:30:47;;;;;;;;;5.33;4.33;;;;;47.85;25.70;101717.84;6145910;23;45497;-93
2022/05/01 14:33:31;;;;;;;;;4.00;4.00;;;;;49.08;25.67;101722.97;6172798;23;46214;-91
2022/05/01 14:35:59;;;;;;;;;4.00;4.00;;;;;50.05;25.39;101706.13;6171541;23;45739;-90
2022/05/01 14:38:45;;;;;;;;;2.00;2.00;;;;;49.54;24.82;101715.38;6172021;23;45322;-90
2022/05/01 14:41:16;;;;;;;;;3.00;3.00;;;;;47.52;24.79;101706.31;6172169;23;45247;-89
2022/05/01 14:43:44;;;;;;;;;4.00;2.67;;;;;44.88;25.02;101711.91;6171070;23;46350;-92
2022/05/01 14:46:10;;;;;;;;;5.00;5.00;;;;;42.30;26.33;101703.97;6171191;23;45384;-90
2022/05/01 14:49:18;;;;;;;;;5.33;5.00;;;;;39.80;27.36;101703.75;6172328;23;45450;-90
2022/05/01 14:51:48;;;;;;;;;5.00;4.00;;;;;37.88;28.76;101706.81;6175291;22;45650;-91
2022/05/01 14:54:14;;;;;;;;;7.00;5.33;;;;;36.53;29.54;101700.16;6143616;23;47157;-89
2022/05/01 14:56:40;;;;;;;;;6.00;5.00;;;;;35.40;30.28;101701.78;6145033;23;45364;-90
2022/05/01 15:07:27;;;;;;;;;7.33;5.67;;;;;31.37;33.68;101697.88;6171027;23;45258;-90
2022/05/01 15:09:55;;;;;;;;;7.67;6.67;;;;;30.80;33.89;101690.31;6140788;23;45774;-90
2022/05/01 15:12:21;;;;;;;;;9.00;6.00;;;;;30.10;34.38;101702.72;6144035;23;45282;-89
2022/05/01 15:14:47;;;;;;;;;6.33;6.00;;;;;29.37;35.06;101698.75;6171150;23;45721;-91
2022/05/01 15:17:18;;;;;;;;;7.00;5.00;;;;;28.60;35.46;101695.53;6170945;23;45344;-90
2022/05/01 15:19:48;;;;;;;;;7.00;7.00;;;;;27.98;36.25;101697.28;6171732;23;45352;-89
2022/05/01 15:22:39;;;;;;;;;5.00;5.00;;;;;27.42;37.49;101694.28;6144346;23;45331;-88
2022/05/01 15:25:25;;;;;;;;;4.33;4.33;;;;;26.95;38.16;101685.75;6168483;23;45655;-90
2022/05/01 15:28:01;;;;;;;;;6.00;4.67;;;;;26.64;38.68;101690.47;6171359;23;45270;-89
2022/05/01 15:30:50;;;;;;;;;6.00;5.00;;;;;26.44;39.73;101683.41;6146331;23;45269;-89
2022/05/01 15:35:53;;;;;;;;;6.33;6.00;;;;;26.21;40.26;101680.81;6170095;23;45336;-89
2022/05/01 15:38:28;;;;;;;;;4.00;4.00;;;;;26.08;40.43;101682.72;6172073;23;45701;-88
2022/05/01 15:41:08;;;;;;;;;6.67;5.67;;;;;25.91;40.44;101689.06;6172038;23;45401;-90
2022/05/01 15:43:33;;;;;;;;;7.33;5.33;;;;;25.72;40.58;101680.16;6147036;23;45477;-90
2022/05/01 15:45:59;;;;;;;;;6.00;6.00;;;;;25.52;41.32;101678.38;6145854;23;49796;-89
2022/05/01 15:54:01;;;;;;;;;4.67;4.67;;;;;24.66;42.35;101685.59;6172468;23;45321;-89
2022/05/01 15:56:27;;;;;;;;;7.33;5.00;;;;;24.31;42.36;101679.28;6173026;23;46461;-90
2022/05/01 15:58:54;;;;;;;;;8.33;6.00;;;;;24.01;42.93;101675.56;6171743;23;45303;-89
2022/05/01 16:01:23;;;;;;;;;8.67;6.00;;;;;23.71;43.01;101680.78;6172293;23;45315;-90
2022/05/01 16:03:48;;;;;;;;;6.00;6.00;;;;;23.43;44.11;101678.81;6173194;23;45343;-89
2022/05/01 16:06:17;;;;;;;;;6.33;5.00;;;;;23.27;44.21;101671.59;6171303;23;45455;-90
2022/05/01 16:08:45;;;;;;;;;5.00;5.00;;;;;23.19;44.84;101680.44;6145732;23;45429;-89
2022/05/01 16:11:21;;;;;;;;;5.67;4.33;;;;;23.19;45.38;101680.44;6172469;23;45493;-91
2022/05/01 16:13:57;;;;;;;;;5.33;5.33;;;;;23.18;45.08;101677.75;6142429;23;45531;-89
2022/05/01 16:16:42;;;;;;;;;5.33;5.00;;;;;23.12;45.34;101670.56;6142614;23;47039;-88
2022/05/01 16:19:50;;;;;;;;;6.67;6.00;;;;;23.03;45.47;101665.16;6167109;23;45355;-87
2022/05/01 16:22:19;;;;;;;;;8.00;6.67;;;;;22.96;45.89;101674.94;6170325;23;45408;-87
2022/05/01 16:24:56;;;;;;;;;6.00;5.33;;;;;22.89;46.10;101671.28;6170051;23;45612;-89
2022/05/01 16:27:30;;;;;;;;;6.67;6.00;;;;;22.84;46.52;101667.69;6170012;23;45678;-88
2022/05/01 16:30:00;;;;;;;;;5.67;4.33;;;;;22.74;46.38;101662.25;6144536;22;45513;-89
2022/05/01 16:32:48;;;;;;;;;7.33;6.00;;;;;22.73;46.18;101662.25;6143666;23;45246;-89
2022/05/01 16:35:13;;;;;;;;;4.00;4.00;;;;;22.61;46.72;101655.84;6170273;23;45343;-89
2022/05/01 16:37:46;;;;;;;;;6.33;6.00;;;;;22.58;46.47;101665.63;6143551;23;48166;-88
2022/05/01 16:40:14;;;;;;;;;5.00;5.00;;;;;22.51;47.13;101657.56;6142535;23;46000;-88
2022/05/01 16:42:39;;;;;;;;;5.00;5.00;;;;;22.50;46.93;101654.84;6170765;23;45439;-87
2022/05/01 16:45:06;;;;;;;;;6.00;6.00;;;;;22.49;47.35;101645.94;6144567;22;45299;-91
2022/05/01 16:47:32;;;;;;;;;7.67;6.00;;;;;22.48;47.71;101649.50;6144559;23;47235;-88
2022/05/01 16:50:04;;;;;;;;;4.00;4.00;;;;;22.44;47.72;101656.59;6170466;23;45322;-90
2022/05/01 16:52:32;;;;;;;;;7.00;6.33;;;;;22.31;47.62;101644.88;6169576;23;45397;-90
2022/05/01 16:54:58;;;;;;;;;7.00;5.33;;;;;22.22;47.72;101644.75;6142620;23;45722;-87
2022/05/01 16:57:25;;;;;;;;;5.67;5.00;;;;;22.12;47.66;101654.47;6170335;23;46287;-89
2022/05/01 16:59:54;;;;;;;;;6.67;6.33;;;;;22.02;48.30;101645.44;6142149;23;45522;-91
2022/05/01 17:02:28;;;;;;;;;8.67;8.67;;;;;21.89;48.17;101655.09;6170357;23;45587;-89
2022/05/01 17:05:34;;;;;;;;;4.67;4.67;;;;;21.74;48.13;101645.97;6144685;22;45408;-87
2022/05/01 17:08:27;;;;;;;;;6.33;5.67;;;;;21.57;48.35;101648.38;6201038;22;46583;-88
2022/05/01 17:11:08;;;;;;;;;7.75;6.50;;;;;21.40;48.87;101651.72;6127211;22;1388550;-89
2022/05/01 17:14:10;;;;;;;;;5.67;5.00;;;;;21.21;49.17;101651.44;6147159;23;45707;-87
2022/05/01 17:16:55;;;;;;;;;6.00;4.00;;;;;21.06;49.41;101641.44;6173119;23;45398;-88
2022/05/01 17:19:25;;;;;;;;;5.00;5.00;;;;;20.95;49.93;101646.56;6174060;23;45602;-87
2022/05/01 17:21:59;;;;;;;;;6.67;6.00;;;;;20.87;49.68;101646.44;6171610;23;45666;-88
2022/05/01 17:24:49;;;;;;;;;6.00;6.00;;;;;20.82;49.99;101648.13;6149809;23;45363;-88
2022/05/01 17:27:15;;;;;;;;;6.00;6.00;;;;;20.76;49.96;101654.28;6147837;23;45289;-87
2022/05/01 17:30:11;;;;;;;;;5.00;5.00;;;;;20.73;49.81;101654.22;6172926;23;45509;-87
2022/05/01 17:32:39;;;;;;;;;4.00;4.00;;;;;20.68;50.62;101655.00;6169604;23;45792;-88
2022/05/01 17:35:05;;;;;;;;;7.00;6.00;;;;;20.58;50.75;101646.84;6148954;23;45387;-86
2022/05/01 17:37:32;;;;;;;;;4.00;4.00;;;;;20.50;50.85;101652.03;6171937;23;45633;-87
2022/05/01 17:40:00;;;;;;;;;15.00;13.67;;;;;20.44;51.11;101649.25;6144246;23;48375;-88
2022/05/01 17:42:27;;;;;;;;;18.25;18.00;;;;;20.38;51.47;101655.38;6172124;23;45608;-89
2022/05/01 17:44:54;;;;;;;;;17.00;14.00;;;;;20.31;51.50;101654.34;6262370;22;45290;-89
2022/05/01 17:47:21;;;;;;;;;11.00;8.00;;;;;20.27;51.72;101665.84;6268343;22;45805;-91
2022/05/01 17:49:50;;;;;;;;;5.33;3.33;;;;;20.22;51.67;101651.50;6270394;22;45287;-90
2022/05/01 17:52:16;;;;;;;;;48.00;39.00;;;;;20.13;51.92;101654.88;6267243;22;45326;-89
2022/05/01 17:54:43;;;;;;;;;20.75;20.50;;;;;20.02;52.32;101646.66;6268811;22;45373;-89
2022/05/01 17:57:10;;;;;;;;;9.75;8.00;;;;;19.97;52.41;101659.00;6269887;22;45601;-89
2022/05/01 17:59:35;;;;;;;;;7.00;7.00;;;;;19.88;52.43;101652.59;6268319;22;47274;-90
2022/05/01 18:02:37;;;;;;;;;7.33;7.33;;;;;19.79;52.57;101660.38;6271432;22;45292;-89
2022/05/01 18:11:17;;;;;;;;;6.67;5.67;;;;;19.51;53.24;101650.00;6206589;22;45257;-91
2022/05/01 18:13:54;;;;;;;;;5.00;5.00;;;;;19.43;53.35;101656.94;6115541;23;45664;-90
2022/05/01 18:16:41;;;;;;;;;7.33;7.00;;;;;19.35;53.50;101654.09;6143388;23;45242;-90
2022/05/01 18:19:28;;;;;;;;;9.00;9.00;;;;;19.28;53.39;101654.81;6115281;23;45527;-89
2022/05/01 18:22:10;;;;;;;;;8.00;6.00;;;;;19.23;53.94;101656.44;6116462;23;47373;-90
2022/05/01 18:25:06;;;;;;;;;8.33;6.67;;;;;19.14;54.04;101652.69;6113564;23;45371;-90
2022/05/01 18:27:51;;;;;;;;;5.33;5.33;;;;;19.10;54.06;101645.47;6142353;23;45412;-89
2022/05/01 18:30:18;;;;;;;;;7.67;7.00;;;;;19.12;54.44;101653.53;6143769;23;45548;-89
2022/05/01 18:33:16;;;;;;;;;7.33;7.00;;;;;19.09;54.74;101657.91;6142047;23;46178;-92
2022/05/01 18:35:48;;;;;;;;;10.67;8.67;;;;;19.05;54.99;101657.78;6145818;23;45361;-89